createdAt,value
2018-02-17T00:00:44.564Z,96.35
2018-02-17T00:01:44.434Z,96.16
2018-02-17T00:02:44.301Z,96.26
2018-02-17T00:03:44.173Z,96.35
2018-02-17T00:04:44.045Z,96.35
2018-02-17T00:05:43.913Z,96.26
2018-02-17T00:06:43.784Z,95.69
2018-02-17T00:07:43.658Z,96.12
2018-02-17T00:08:43.529Z,96.26
2018-02-17T00:09:43.397Z,96.35
2018-02-17T00:10:43.271Z,96.35
2018-02-17T00:11:43.141Z,96.16
2018-02-17T00:12:43.011Z,96.26
2018-02-17T00:13:42.883Z,96.35
2018-02-17T00:14:42.753Z,96.07
2018-02-17T00:15:42.623Z,96.83
2018-02-17T00:16:42.494Z,96.26
2018-02-17T00:17:42.364Z,96.26
2018-02-17T00:18:42.241Z,96.26
2018-02-17T00:19:42.111Z,96.26
2018-02-17T00:20:41.978Z,96.26
2018-02-17T00:21:41.846Z,96.12
2018-02-17T00:22:41.718Z,96.21
2018-02-17T00:23:41.588Z,96.31
2018-02-17T00:24:41.457Z,95.74
2018-02-17T00:25:41.328Z,96.21
2018-02-17T00:26:41.200Z,96.26
2018-02-17T00:27:41.070Z,96.02
2018-02-17T00:28:40.941Z,96.40
2018-02-17T00:29:40.811Z,96.31
2018-02-17T00:30:40.681Z,95.64
2018-02-17T00:31:40.553Z,96.31
2018-02-17T00:32:40.425Z,96.21
2018-02-17T00:33:40.293Z,96.35
2018-02-17T00:34:40.166Z,96.21
2018-02-17T00:35:40.032Z,96.26
2018-02-17T00:36:39.906Z,96.02
2018-02-17T00:37:39.779Z,96.31
2018-02-17T00:38:39.646Z,96.31
2018-02-17T00:39:39.518Z,95.64
2018-02-17T00:40:39.391Z,95.64
2018-02-17T00:41:39.258Z,96.02
2018-02-17T00:42:39.136Z,96.02
2018-02-17T00:43:39.002Z,95.74
2018-02-17T00:44:38.869Z,96.21
2018-02-17T00:45:38.739Z,96.02
2018-02-17T00:46:38.612Z,96.02
2018-02-17T00:47:38.482Z,96.02
2018-02-17T00:48:38.352Z,96.12
2018-02-17T00:49:38.227Z,95.74
2018-02-17T00:50:38.092Z,96.31
2018-02-17T00:51:37.965Z,96.50
2018-02-17T00:52:37.839Z,96.59
2018-02-17T00:53:37.703Z,96.59
2018-02-17T00:54:37.574Z,96.59
2018-02-17T00:55:37.444Z,96.40
2018-02-17T00:56:37.316Z,96.40
2018-02-17T00:57:37.185Z,96.40
2018-02-17T00:58:37.056Z,96.50
2018-02-17T00:59:36.931Z,96.59
2018-02-17T01:00:36.798Z,96.12
2018-02-17T01:01:36.667Z,96.59
2018-02-17T01:02:36.534Z,96.59
2018-02-17T01:03:36.404Z,96.59
2018-02-17T01:04:36.275Z,96.50
2018-02-17T01:05:36.145Z,96.40
2018-02-17T01:06:36.014Z,96.59
2018-02-17T01:07:35.882Z,96.50
2018-02-17T01:08:35.753Z,96.59
2018-02-17T01:09:35.624Z,96.59
2018-02-17T01:10:35.493Z,96.59
2018-02-17T01:11:35.363Z,96.40
2018-02-17T01:12:35.234Z,96.69
2018-02-17T01:13:35.101Z,96.59
2018-02-17T01:14:34.972Z,96.40
2018-02-17T01:15:34.840Z,96.69
2018-02-17T01:16:34.717Z,96.69
2018-02-17T01:17:34.581Z,96.59
2018-02-17T01:18:34.451Z,96.50
2018-02-17T01:19:34.323Z,96.50
2018-02-17T01:20:34.192Z,96.40
2018-02-17T01:21:34.061Z,96.59
2018-02-17T01:22:33.933Z,96.50
2018-02-17T01:23:33.800Z,96.31
2018-02-17T01:24:33.667Z,96.50
2018-02-17T01:25:33.537Z,96.50
2018-02-17T01:26:33.409Z,96.40
2018-02-17T01:27:33.279Z,96.50
2018-02-17T01:28:33.149Z,96.50
2018-02-17T01:29:33.015Z,96.50
2018-02-17T01:30:32.888Z,96.59
2018-02-17T01:31:32.756Z,96.59
2018-02-17T01:32:32.626Z,96.59
2018-02-17T01:33:32.497Z,96.50
2018-02-17T01:34:32.366Z,96.59
2018-02-17T01:35:32.234Z,96.59
2018-02-17T01:36:32.108Z,96.59
2018-02-17T01:37:31.971Z,96.40
2018-02-17T01:38:31.840Z,96.50
2018-02-17T01:39:31.710Z,96.69
2018-02-17T01:40:31.579Z,96.59
2018-02-17T01:41:31.447Z,96.59
2018-02-17T01:42:31.318Z,96.40
2018-02-17T01:43:31.186Z,96.69
2018-02-17T01:44:31.058Z,96.40
2018-02-17T01:45:30.927Z,96.50
2018-02-17T01:46:30.794Z,96.50
2018-02-17T01:47:30.665Z,96.40
2018-02-17T01:48:30.534Z,96.31
2018-02-17T01:49:30.401Z,96.40
2018-02-17T01:50:30.273Z,96.59
2018-02-17T01:51:30.143Z,96.50
2018-02-17T01:52:30.009Z,96.50
2018-02-17T01:53:29.881Z,96.50
2018-02-17T01:54:29.751Z,96.31
2018-02-17T01:55:29.616Z,96.31
2018-02-17T01:56:29.486Z,96.31
2018-02-17T01:57:29.354Z,96.50
2018-02-17T01:58:29.225Z,96.59
2018-02-17T01:59:29.095Z,96.31
2018-02-17T02:00:28.963Z,96.31
2018-02-17T02:01:28.835Z,96.40
2018-02-17T02:02:28.705Z,96.69
2018-02-17T02:03:28.571Z,96.69
2018-02-17T02:04:28.439Z,96.50
2018-02-17T02:05:28.308Z,96.59
2018-02-17T02:06:28.177Z,96.21
2018-02-17T02:07:28.044Z,96.40
2018-02-17T02:08:27.913Z,96.40
2018-02-17T02:09:27.783Z,96.59
2018-02-17T02:10:27.652Z,96.50
2018-02-17T02:11:27.529Z,96.40
2018-02-17T02:12:27.392Z,96.50
2018-02-17T02:13:27.258Z,96.59
2018-02-17T02:14:27.130Z,96.59
2018-02-17T02:15:26.998Z,96.59
2018-02-17T02:16:26.867Z,96.69
2018-02-17T02:17:26.734Z,96.59
2018-02-17T02:18:26.604Z,96.40
2018-02-17T02:19:26.472Z,96.40
2018-02-17T02:20:26.342Z,96.59
2018-02-17T02:21:26.212Z,96.40
2018-02-17T02:22:26.081Z,96.50
2018-02-17T02:23:25.950Z,96.59
2018-02-17T02:24:25.819Z,96.59
2018-02-17T02:25:25.692Z,96.40
2018-02-17T02:26:25.556Z,96.59
2018-02-17T02:27:25.428Z,96.59
2018-02-17T02:28:25.292Z,96.40
2018-02-17T02:29:25.163Z,96.69
2018-02-17T02:30:25.034Z,96.40
2018-02-17T02:31:24.902Z,96.50
2018-02-17T02:32:24.773Z,96.50
2018-02-17T02:33:24.640Z,96.50
2018-02-17T02:34:24.509Z,96.50
2018-02-17T02:35:24.377Z,96.59
2018-02-17T02:36:24.248Z,96.59
2018-02-17T02:37:24.114Z,96.50
2018-02-17T02:38:23.985Z,96.69
2018-02-17T02:39:23.857Z,96.50
2018-02-17T02:40:23.723Z,96.69
2018-02-17T02:41:23.591Z,96.40
2018-02-17T02:42:23.464Z,96.59
2018-02-17T02:43:23.328Z,96.78
2018-02-17T02:44:23.200Z,96.59
2018-02-17T02:45:23.067Z,96.88
2018-02-17T02:46:22.934Z,96.69
2018-02-17T02:47:22.805Z,96.69
2018-02-17T02:48:22.674Z,96.26
2018-02-17T02:49:22.548Z,96.59
2018-02-17T02:50:22.410Z,96.45
2018-02-17T02:51:22.281Z,96.31
2018-02-17T02:52:22.147Z,96.64
2018-02-17T02:53:22.017Z,96.50
2018-02-17T02:54:21.886Z,96.59
2018-02-17T02:55:21.754Z,96.50
2018-02-17T02:56:21.623Z,96.50
2018-02-17T02:57:21.494Z,96.21
2018-02-17T02:58:21.365Z,96.40
2018-02-17T02:59:21.230Z,96.59
2018-02-17T03:00:21.097Z,96.69
2018-02-17T03:01:20.967Z,96.50
2018-02-17T03:02:20.839Z,96.73
2018-02-17T03:03:20.707Z,96.78
2018-02-17T03:04:20.578Z,96.54
2018-02-17T03:05:20.444Z,96.45
2018-02-17T03:06:20.315Z,96.54
2018-02-17T03:07:20.182Z,96.64
2018-02-17T03:08:20.051Z,96.73
2018-02-17T03:09:19.918Z,96.64
2018-02-17T03:10:19.787Z,96.35
2018-02-17T03:11:19.658Z,96.45
2018-02-17T03:12:19.525Z,96.35
2018-02-17T03:13:19.398Z,96.35
2018-02-17T03:14:19.264Z,96.54
2018-02-17T03:15:19.151Z,96.45
2018-02-17T03:16:19.006Z,96.45
2018-02-17T03:17:18.870Z,96.50
2018-02-17T03:18:18.739Z,96.88
2018-02-17T03:19:18.612Z,96.69
2018-02-17T03:20:18.481Z,96.69
2018-02-17T03:21:18.351Z,96.59
2018-02-17T03:22:18.214Z,96.31
2018-02-17T03:23:18.085Z,96.31
2018-02-17T03:24:17.954Z,96.21
2018-02-17T03:25:17.822Z,96.40
2018-02-17T03:26:17.690Z,96.50
2018-02-17T03:27:17.562Z,96.50
2018-02-17T03:28:17.428Z,96.31
2018-02-17T03:29:17.303Z,96.31
2018-02-17T03:30:17.171Z,96.69
2018-02-17T03:31:17.039Z,96.59
2018-02-17T03:32:16.909Z,96.59
2018-02-17T03:33:16.776Z,96.88
2018-02-17T03:34:16.642Z,96.69
2018-02-17T03:35:16.514Z,96.59
2018-02-17T03:36:16.385Z,96.31
2018-02-17T03:37:16.249Z,96.40
2018-02-17T03:38:16.120Z,96.31
2018-02-17T03:39:15.988Z,96.59
2018-02-17T03:40:15.861Z,96.59
2018-02-17T03:41:15.727Z,96.50
2018-02-17T03:42:15.597Z,96.50
2018-02-17T03:43:15.475Z,96.50
2018-02-17T03:44:15.335Z,96.31
2018-02-17T03:45:15.202Z,96.59
2018-02-17T03:46:15.074Z,96.40
2018-02-17T03:47:14.939Z,96.59
2018-02-17T03:48:14.808Z,96.59
2018-02-17T03:49:14.677Z,96.59
2018-02-17T03:50:14.547Z,96.59
2018-02-17T03:51:14.413Z,96.50
2018-02-17T03:52:14.284Z,96.50
2018-02-17T03:53:14.153Z,96.40
2018-02-17T03:54:14.029Z,96.40
2018-02-17T03:55:13.889Z,96.50
2018-02-17T03:56:13.764Z,96.40
2018-02-17T03:57:13.628Z,96.59
2018-02-17T03:58:13.497Z,96.59
2018-02-17T03:59:13.367Z,96.69
2018-02-17T04:00:13.235Z,96.59
2018-02-17T04:01:13.103Z,96.59
2018-02-17T04:02:12.973Z,96.50
2018-02-17T04:03:12.842Z,96.69
2018-02-17T04:04:12.716Z,96.69
2018-02-17T04:05:12.578Z,96.69
2018-02-17T04:06:12.451Z,96.69
2018-02-17T04:07:12.316Z,96.69
2018-02-17T04:08:12.188Z,96.88
2018-02-17T04:09:12.059Z,96.69
2018-02-17T04:10:11.923Z,96.69
2018-02-17T04:11:11.792Z,96.31
2018-02-17T04:12:11.664Z,96.40
2018-02-17T04:13:11.530Z,96.50
2018-02-17T04:14:11.400Z,96.21
2018-02-17T04:15:11.267Z,96.97
2018-02-17T04:16:11.135Z,96.78
2018-02-17T04:17:11.007Z,96.69
2018-02-17T04:18:10.872Z,96.69
2018-02-17T04:19:10.743Z,96.69
2018-02-17T04:20:10.618Z,96.59
2018-02-17T04:21:10.481Z,96.59
2018-02-17T04:22:10.350Z,96.40
2018-02-17T04:23:10.217Z,96.69
2018-02-17T04:24:10.090Z,96.40
2018-02-17T04:25:09.956Z,96.50
2018-02-17T04:26:09.826Z,96.50
2018-02-17T04:27:09.694Z,96.31
2018-02-17T04:28:09.566Z,96.50
2018-02-17T04:29:09.433Z,96.31
2018-02-17T04:30:09.300Z,96.21
2018-02-17T04:31:09.172Z,96.69
2018-02-17T04:32:09.045Z,96.50
2018-02-17T04:33:08.909Z,96.50
2018-02-17T04:34:08.779Z,96.50
2018-02-17T04:35:08.646Z,96.40
2018-02-17T04:36:08.516Z,96.50
2018-02-17T04:37:08.384Z,96.31
2018-02-17T04:38:08.256Z,96.40
2018-02-17T04:39:08.124Z,96.50
2018-02-17T04:40:07.993Z,96.50
2018-02-17T04:41:07.867Z,96.59
2018-02-17T04:42:07.737Z,96.40
2018-02-17T04:43:07.600Z,96.40
2018-02-17T04:44:07.470Z,96.59
2018-02-17T04:45:07.342Z,96.69
2018-02-17T04:46:07.208Z,96.59
2018-02-17T04:47:07.079Z,96.69
2018-02-17T04:48:06.952Z,96.88
2018-02-17T04:49:06.817Z,96.69
2018-02-17T04:50:06.687Z,96.50
2018-02-17T04:51:06.556Z,96.12
2018-02-17T04:52:06.424Z,96.31
2018-02-17T04:53:06.294Z,96.21
2018-02-17T04:54:06.161Z,96.50
2018-02-17T04:55:06.030Z,96.69
2018-02-17T04:56:05.900Z,96.40
2018-02-17T04:57:05.769Z,96.31
2018-02-17T04:58:05.639Z,96.59
2018-02-17T04:59:05.506Z,96.50
2018-02-17T05:00:05.376Z,96.50
2018-02-17T05:01:05.244Z,96.40
2018-02-17T05:02:05.116Z,96.69
2018-02-17T05:03:04.985Z,96.69
2018-02-17T05:04:04.854Z,96.50
2018-02-17T05:05:04.721Z,96.59
2018-02-17T05:06:04.591Z,96.59
2018-02-17T05:07:04.462Z,96.69
2018-02-17T05:08:04.329Z,96.40
2018-02-17T05:09:04.200Z,96.40
2018-02-17T05:10:04.068Z,96.21
2018-02-17T05:11:03.938Z,96.31
2018-02-17T05:12:03.809Z,96.88
2018-02-17T05:13:03.676Z,96.50
2018-02-17T05:14:03.545Z,96.59
2018-02-17T05:15:03.412Z,96.88
2018-02-17T05:16:03.284Z,96.50
2018-02-17T05:17:03.189Z,96.21
2018-02-17T05:18:03.019Z,96.50
2018-02-17T05:19:02.892Z,96.78
2018-02-17T05:20:02.761Z,96.69
2018-02-17T05:21:02.638Z,96.97
2018-02-17T05:22:02.499Z,96.12
2018-02-17T05:23:02.373Z,96.59
2018-02-17T05:24:02.234Z,96.69
2018-02-17T05:25:02.109Z,96.59
2018-02-17T05:26:01.973Z,96.31
2018-02-17T05:27:01.841Z,96.31
2018-02-17T05:28:01.710Z,96.50
2018-02-17T05:29:01.579Z,96.50
2018-02-17T05:30:01.447Z,96.50
2018-02-17T05:31:01.317Z,96.50
2018-02-17T05:32:01.185Z,96.50
2018-02-17T05:33:01.056Z,96.69
2018-02-17T05:34:00.924Z,96.59
2018-02-17T05:35:00.794Z,96.40
2018-02-17T05:36:00.662Z,96.59
2018-02-17T05:37:00.534Z,96.31
2018-02-17T05:38:00.399Z,96.40
2018-02-17T05:39:00.268Z,96.40
2018-02-17T05:40:00.137Z,96.31
2018-02-17T05:41:00.025Z,96.50
2018-02-17T05:41:59.874Z,96.50
2018-02-17T05:42:59.742Z,96.50
2018-02-17T05:43:59.611Z,96.21
2018-02-17T05:44:59.482Z,96.31
2018-02-17T05:45:59.350Z,96.50
2018-02-17T05:46:59.215Z,96.21
2018-02-17T05:47:59.086Z,96.31
2018-02-17T05:48:58.961Z,96.50
2018-02-17T05:49:58.825Z,96.69
2018-02-17T05:50:58.693Z,96.59
2018-02-17T05:51:58.564Z,96.59
2018-02-17T05:52:58.429Z,96.31
2018-02-17T05:53:58.300Z,96.40
2018-02-17T05:54:58.167Z,96.50
2018-02-17T05:55:58.039Z,96.50
2018-02-17T05:56:57.905Z,96.59
2018-02-17T05:57:57.776Z,96.40
2018-02-17T05:58:57.644Z,96.59
2018-02-17T05:59:57.514Z,96.31
2018-02-17T06:00:57.379Z,96.40
2018-02-17T06:01:57.249Z,96.50
2018-02-17T06:02:57.119Z,96.50
2018-02-17T06:03:56.992Z,96.59
2018-02-17T06:04:56.858Z,96.21
2018-02-17T06:05:56.727Z,96.50
2018-02-17T06:06:56.598Z,96.40
2018-02-17T06:07:56.466Z,96.40
2018-02-17T06:08:56.335Z,96.31
2018-02-17T06:09:56.202Z,96.59
2018-02-17T06:10:56.145Z,96.31
2018-02-17T06:11:55.944Z,96.50
2018-02-17T06:12:55.809Z,96.40
2018-02-17T06:13:55.681Z,96.50
2018-02-17T06:14:55.548Z,96.59
2018-02-17T06:15:55.417Z,96.69
2018-02-17T06:16:55.287Z,96.59
2018-02-17T06:17:55.158Z,96.50
2018-02-17T06:18:55.028Z,96.78
2018-02-17T06:19:54.899Z,97.34
2018-02-17T06:20:54.765Z,97.06
2018-02-17T06:21:54.632Z,97.53
2018-02-17T06:22:54.502Z,97.63
2018-02-17T06:23:54.370Z,97.82
2018-02-17T06:24:54.239Z,97.72
2018-02-17T06:25:54.110Z,97.63
2018-02-17T06:26:53.980Z,97.16
2018-02-17T06:27:53.847Z,97.25
2018-02-17T06:28:53.715Z,97.25
2018-02-17T06:29:53.588Z,97.25
2018-02-17T06:30:53.455Z,96.97
2018-02-17T06:31:53.382Z,96.69
2018-02-17T06:32:53.194Z,97.06
2018-02-17T06:33:53.062Z,96.88
2018-02-17T06:34:52.932Z,96.88
2018-02-17T06:35:52.802Z,96.69
2018-02-17T06:36:52.673Z,96.78
2018-02-17T06:37:52.538Z,96.69
2018-02-17T06:38:52.407Z,96.69
2018-02-17T06:39:52.276Z,96.31
2018-02-17T06:40:52.146Z,96.50
2018-02-17T06:41:52.017Z,96.40
2018-02-17T06:42:51.883Z,96.40
2018-02-17T06:43:51.754Z,96.31
2018-02-17T06:44:51.624Z,96.50
2018-02-17T06:45:51.492Z,96.50
2018-02-17T06:46:51.363Z,96.50
2018-02-17T06:47:51.231Z,96.59
2018-02-17T06:48:51.099Z,96.69
2018-02-17T06:49:50.969Z,96.59
2018-02-17T06:50:50.836Z,96.31
2018-02-17T06:51:50.708Z,96.69
2018-02-17T06:52:50.579Z,96.50
2018-02-17T06:53:50.445Z,96.40
2018-02-17T06:54:50.312Z,96.59
2018-02-17T06:55:50.183Z,96.59
2018-02-17T06:56:50.050Z,96.40
2018-02-17T06:57:49.920Z,96.50
2018-02-17T06:58:49.790Z,96.59
2018-02-17T06:59:49.656Z,96.59
2018-02-17T07:00:49.529Z,96.02
2018-02-17T07:01:49.397Z,96.59
2018-02-17T07:02:49.271Z,96.64
2018-02-17T07:03:49.137Z,96.50
2018-02-17T07:04:49.003Z,96.50
2018-02-17T07:05:48.876Z,96.64
2018-02-17T07:06:48.744Z,96.35
2018-02-17T07:07:48.615Z,96.64
2018-02-17T07:08:48.486Z,96.73
2018-02-17T07:09:48.351Z,96.73
2018-02-17T07:10:48.220Z,96.73
2018-02-17T07:11:48.092Z,96.64
2018-02-17T07:12:47.960Z,96.83
2018-02-17T07:13:47.832Z,96.83
2018-02-17T07:14:47.700Z,97.58
2018-02-17T07:15:47.570Z,97.39
2018-02-17T07:16:47.449Z,97.77
2018-02-17T07:17:47.307Z,98.15
2018-02-17T07:18:47.183Z,98.34
2018-02-17T07:19:47.051Z,98.15
2018-02-17T07:20:46.921Z,98.53
2018-02-17T07:21:46.791Z,98.48
2018-02-17T07:22:46.662Z,98.63
2018-02-17T07:23:46.529Z,98.15
2018-02-17T07:24:46.399Z,97.82
2018-02-17T07:25:46.272Z,98.06
2018-02-17T07:26:46.139Z,98.06
2018-02-17T07:27:46.012Z,97.68
2018-02-17T07:28:45.881Z,97.49
2018-02-17T07:29:45.748Z,97.39
2018-02-17T07:30:45.622Z,97.58
2018-02-17T07:31:45.490Z,97.20
2018-02-17T07:32:45.361Z,97.02
2018-02-17T07:33:45.232Z,97.49
2018-02-17T07:34:45.101Z,97.68
2018-02-17T07:35:44.973Z,97.49
2018-02-17T07:36:44.840Z,97.30
2018-02-17T07:37:44.713Z,97.68
2018-02-17T07:38:44.583Z,97.77
2018-02-17T07:39:44.455Z,98.06
2018-02-17T07:40:44.323Z,97.96
2018-02-17T07:41:44.191Z,97.87
2018-02-17T07:42:44.066Z,98.25
2018-02-17T07:43:43.934Z,97.96
2018-02-17T07:44:43.804Z,98.30
2018-02-17T07:45:43.682Z,98.20
2018-02-17T07:46:43.545Z,98.20
2018-02-17T07:47:43.417Z,98.30
2018-02-17T07:48:43.286Z,98.11
2018-02-17T07:49:43.159Z,98.20
2018-02-17T07:50:43.030Z,98.39
2018-02-17T07:51:42.899Z,98.11
2018-02-17T07:52:42.769Z,98.49
2018-02-17T07:53:42.642Z,98.96
2018-02-17T07:54:42.514Z,98.58
2018-02-17T07:55:42.383Z,98.58
2018-02-17T07:56:42.256Z,99.43
2018-02-17T07:57:42.127Z,98.86
2018-02-17T07:58:41.997Z,98.58
2018-02-17T07:59:41.867Z,98.86
2018-02-17T08:00:41.737Z,98.39
2018-02-17T08:01:41.616Z,98.20
2018-02-17T08:02:41.485Z,98.39
2018-02-17T08:03:41.354Z,98.39
2018-02-17T08:04:41.224Z,98.39
2018-02-17T08:05:41.096Z,98.01
2018-02-17T08:06:40.971Z,98.01
2018-02-17T08:07:40.843Z,97.92
2018-02-17T08:08:40.709Z,99.24
2018-02-17T08:09:40.642Z,99.52
2018-02-17T08:10:40.452Z,97.73
2018-02-17T08:11:40.327Z,98.16
2018-02-17T08:12:40.195Z,98.54
2018-02-17T08:13:40.062Z,98.54
2018-02-17T08:14:39.937Z,98.63
2018-02-17T08:15:39.806Z,99.39
2018-02-17T08:16:39.679Z,99.99
2018-02-17T08:17:39.550Z,99.99
2018-02-17T08:18:39.422Z,99.10
2018-02-17T08:19:39.294Z,99.77
2018-02-17T08:20:39.165Z,99.77
2018-02-17T08:21:39.038Z,99.29
2018-02-17T08:22:38.910Z,99.58
2018-02-17T08:23:38.781Z,99.34
2018-02-17T08:24:38.652Z,99.44
2018-02-17T08:25:38.525Z,99.99
2018-02-17T08:26:38.405Z,98.58
2018-02-17T08:27:38.271Z,97.73
2018-02-17T08:28:38.144Z,99.34
2018-02-17T08:29:38.016Z,98.87
2018-02-17T08:30:37.892Z,98.92
2018-02-17T08:31:37.763Z,97.88
2018-02-17T08:32:37.631Z,98.54
2018-02-17T08:33:37.505Z,98.07
2018-02-17T08:34:37.378Z,98.07
2018-02-17T08:35:37.252Z,97.02
2018-02-17T08:36:37.124Z,97.92
2018-02-17T08:37:36.999Z,97.64
2018-02-17T08:38:36.870Z,97.36
2018-02-17T08:39:36.742Z,97.60
2018-02-17T08:40:36.616Z,97.12
2018-02-17T08:41:36.490Z,96.26
2018-02-17T08:42:36.367Z,94.65
2018-02-17T08:43:36.236Z,94.98
2018-02-17T08:44:36.110Z,94.98
2018-02-17T08:45:35.983Z,96.17
2018-02-17T08:46:35.859Z,95.79
2018-02-17T08:47:35.734Z,94.46
2018-02-17T08:48:35.603Z,93.70
2018-02-17T08:49:35.480Z,92.56
2018-02-17T08:50:35.352Z,92.04
2018-02-17T08:51:35.229Z,91.14
2018-02-17T08:52:35.105Z,90.90
2018-02-17T08:53:34.978Z,90.00
2018-02-17T08:54:34.854Z,90.66
2018-02-17T08:55:34.726Z,90.47
2018-02-17T08:56:34.600Z,90.66
2018-02-17T08:57:34.476Z,89.43
2018-02-17T08:58:34.349Z,88.10
2018-02-17T08:59:34.222Z,87.43
2018-02-17T09:00:34.100Z,88.67
2018-02-17T09:01:33.974Z,89.43
2018-02-17T09:02:33.853Z,90.80
2018-02-17T09:03:33.727Z,89.19
2018-02-17T09:04:33.595Z,87.76
2018-02-17T09:05:33.473Z,85.72
2018-02-17T09:06:33.349Z,85.43
2018-02-17T09:07:33.221Z,86.67
2018-02-17T09:08:33.095Z,86.57
2018-02-17T09:09:32.973Z,85.81
2018-02-17T09:10:32.849Z,86.63
2018-02-17T09:11:32.721Z,90.14
2018-02-17T09:12:32.607Z,91.85
2018-02-17T09:13:32.472Z,92.28
2018-02-17T09:14:32.348Z,92.85
2018-02-17T09:15:32.227Z,93.60
2018-02-17T09:16:32.098Z,94.56
2018-02-17T09:17:31.974Z,95.03
2018-02-17T09:18:31.863Z,94.74
2018-02-17T09:19:31.726Z,94.84
2018-02-17T09:20:31.599Z,94.46
2018-02-17T09:21:31.474Z,93.13
2018-02-17T09:22:31.361Z,93.60
2018-02-17T09:23:31.225Z,94.27
2018-02-17T09:24:31.102Z,93.99
2018-02-17T09:25:30.975Z,93.37
2018-02-17T09:26:30.850Z,92.71
2018-02-17T09:27:30.777Z,91.28
2018-02-17T09:28:30.598Z,89.86
2018-02-17T09:29:30.478Z,89.95
2018-02-17T09:30:30.353Z,91.56
2018-02-17T09:31:30.225Z,91.71
2018-02-17T09:32:30.098Z,92.61
2018-02-17T09:33:29.973Z,94.08
2018-02-17T09:34:29.851Z,95.22
2018-02-17T09:35:29.726Z,96.03
2018-02-17T09:36:29.601Z,96.78
2018-02-17T09:37:29.473Z,96.03
2018-02-17T09:38:29.351Z,96.93
2018-02-17T09:39:29.224Z,94.65
2018-02-17T09:40:29.099Z,93.37
2018-02-17T09:41:28.974Z,92.51
2018-02-17T09:42:28.850Z,91.13
2018-02-17T09:43:28.726Z,90.00
2018-02-17T09:44:28.598Z,85.81
2018-02-17T09:45:28.476Z,83.86
2018-02-17T09:46:28.351Z,84.05
2018-02-17T09:47:28.233Z,79.58
2018-02-17T09:48:28.100Z,79.62
2018-02-17T09:49:27.975Z,76.86
2018-02-17T09:50:27.850Z,75.34
2018-02-17T09:51:27.728Z,72.86
2018-02-17T09:52:27.599Z,77.81
2018-02-17T09:53:27.480Z,81.81
2018-02-17T09:54:27.353Z,86.18
2018-02-17T09:55:27.232Z,87.61
2018-02-17T09:56:27.105Z,88.23
2018-02-17T09:57:26.979Z,87.18
2018-02-17T09:58:26.859Z,85.75
2018-02-17T09:59:26.734Z,80.90
2018-02-17T10:00:26.609Z,76.81
2018-02-17T10:01:26.486Z,72.75
2018-02-17T10:02:26.376Z,70.94
2018-02-17T10:03:26.238Z,68.94
2018-02-17T10:04:26.116Z,70.27
2018-02-17T10:05:25.992Z,78.85
2018-02-17T10:06:25.868Z,82.50
2018-02-17T10:07:25.746Z,80.12
2018-02-17T10:08:25.626Z,81.26
2018-02-17T10:09:25.498Z,78.12
2018-02-17T10:10:25.377Z,71.45
2018-02-17T10:11:25.292Z,70.78
2018-02-17T10:12:25.134Z,69.26
2018-02-17T10:13:25.010Z,67.64
2018-02-17T10:14:24.885Z,66.50
2018-02-17T10:15:24.765Z,72.21
2018-02-17T10:16:24.639Z,79.22
2018-02-17T10:17:24.535Z,80.75
2018-02-17T10:18:24.398Z,84.23
2018-02-17T10:19:24.277Z,87.38
2018-02-17T10:20:24.151Z,90.19
2018-02-17T10:21:24.032Z,91.13
2018-02-17T10:22:23.908Z,91.33
2018-02-17T10:23:23.783Z,91.80
2018-02-17T10:24:23.715Z,91.80
2018-02-17T10:25:23.539Z,91.66
2018-02-17T10:26:23.414Z,92.80
2018-02-17T10:27:23.294Z,93.08
2018-02-17T10:28:23.169Z,91.33
2018-02-17T10:29:23.045Z,91.52
2018-02-17T10:30:22.919Z,92.09
2018-02-17T10:31:22.799Z,91.89
2018-02-17T10:32:22.676Z,91.89
2018-02-17T10:33:22.551Z,92.09
2018-02-17T10:34:22.428Z,91.52
2018-02-17T10:35:22.302Z,91.61
2018-02-17T10:36:22.190Z,92.28
2018-02-17T10:37:22.055Z,92.13
2018-02-17T10:38:21.928Z,91.66
2018-02-17T10:39:21.803Z,90.52
2018-02-17T10:40:21.681Z,88.53
2018-02-17T10:41:21.557Z,89.09
2018-02-17T10:42:21.433Z,90.05
2018-02-17T10:43:21.328Z,89.04
2018-02-17T10:44:21.183Z,88.57
2018-02-17T10:45:21.057Z,87.81
2018-02-17T10:46:20.934Z,88.28
2018-02-17T10:47:20.810Z,88.00
2018-02-17T10:48:20.686Z,87.90
2018-02-17T10:49:21.221Z,86.71
2018-02-17T10:50:20.438Z,85.76
2018-02-17T10:51:20.311Z,85.95
2018-02-17T10:52:20.189Z,86.47
2018-02-17T10:53:20.069Z,85.86
2018-02-17T10:54:19.948Z,85.38
2018-02-17T10:55:19.817Z,83.95
2018-02-17T10:56:19.690Z,82.43
2018-02-17T10:57:19.573Z,78.63
2018-02-17T10:58:19.444Z,78.06
2018-02-17T10:59:19.352Z,76.73
2018-02-17T11:00:19.196Z,76.82
2018-02-17T11:01:19.077Z,74.63
2018-02-17T11:02:18.950Z,75.40
2018-02-17T11:03:18.826Z,76.54
2018-02-17T11:04:18.699Z,76.54
2018-02-17T11:05:18.579Z,77.68
2018-02-17T11:06:18.471Z,75.11
2018-02-17T11:07:18.332Z,74.16
2018-02-17T11:08:18.207Z,74.44
2018-02-17T11:09:18.085Z,73.78
2018-02-17T11:10:17.962Z,73.69
2018-02-17T11:11:17.838Z,70.54
2018-02-17T11:12:17.722Z,68.55
2018-02-17T11:13:17.590Z,67.88
2018-02-17T11:14:17.526Z,68.80
2018-02-17T11:15:17.346Z,70.70
2018-02-17T11:16:17.220Z,71.94
2018-02-17T11:17:17.097Z,73.36
2018-02-17T11:18:16.974Z,74.92
2018-02-17T11:19:16.850Z,75.30
2018-02-17T11:20:16.726Z,75.30
2018-02-17T11:21:16.602Z,74.35
2018-02-17T11:22:16.478Z,71.50
2018-02-17T11:23:16.357Z,73.02
2018-02-17T11:24:16.233Z,73.69
2018-02-17T11:25:16.109Z,73.40
2018-02-17T11:26:16.015Z,72.99
2018-02-17T11:27:15.864Z,73.97
2018-02-17T11:28:15.736Z,74.07
2018-02-17T11:29:15.617Z,74.31
2018-02-17T11:30:15.491Z,75.17
2018-02-17T11:31:15.368Z,75.84
2018-02-17T11:32:15.244Z,76.59
2018-02-17T11:33:15.122Z,75.93
2018-02-17T11:34:14.994Z,80.58
2018-02-17T11:35:14.872Z,82.68
2018-02-17T11:36:14.749Z,79.54
2018-02-17T11:37:14.622Z,80.77
2018-02-17T11:38:14.499Z,81.63
2018-02-17T11:39:14.377Z,83.06
2018-02-17T11:40:14.294Z,83.53
2018-02-17T11:41:14.130Z,83.06
2018-02-17T11:42:14.005Z,83.06
2018-02-17T11:43:13.878Z,82.10
2018-02-17T11:44:13.758Z,82.49
2018-02-17T11:45:13.630Z,84.01
2018-02-17T11:46:13.513Z,84.86
2018-02-17T11:47:13.382Z,86.29
2018-02-17T11:48:13.260Z,85.57
2018-02-17T11:49:13.137Z,83.10
2018-02-17T11:50:13.016Z,83.25
2018-02-17T11:51:12.888Z,84.77
2018-02-17T11:52:12.761Z,85.53
2018-02-17T11:53:12.637Z,85.05
2018-02-17T11:54:12.513Z,86.82
2018-02-17T11:55:12.393Z,88.15
2018-02-17T11:56:12.267Z,87.01
2018-02-17T11:57:12.142Z,86.67
2018-02-17T11:58:12.020Z,87.05
2018-02-17T11:59:11.895Z,87.01
2018-02-17T12:00:11.771Z,87.76
2018-02-17T12:01:11.645Z,88.43
2018-02-17T12:02:11.529Z,88.15
2018-02-17T12:03:11.397Z,87.86
2018-02-17T12:04:11.322Z,88.43
2018-02-17T12:05:11.148Z,89.67
2018-02-17T12:06:11.025Z,90.23
2018-02-17T12:07:10.899Z,90.23
2018-02-17T12:08:10.776Z,90.76
2018-02-17T12:09:10.651Z,90.85
2018-02-17T12:10:10.527Z,91.66
2018-02-17T12:11:10.410Z,91.47
2018-02-17T12:12:10.279Z,91.28
2018-02-17T12:13:10.153Z,91.94
2018-02-17T12:14:10.030Z,91.71
2018-02-17T12:15:09.909Z,91.56
2018-02-17T12:16:09.781Z,91.47
2018-02-17T12:17:09.657Z,91.28
2018-02-17T12:18:09.529Z,90.61
2018-02-17T12:19:09.407Z,91.09
2018-02-17T12:20:09.282Z,90.61
2018-02-17T12:21:09.157Z,90.05
2018-02-17T12:22:09.032Z,90.52
2018-02-17T12:23:08.907Z,91.71
2018-02-17T12:24:08.782Z,91.52
2018-02-17T12:25:08.659Z,91.94
2018-02-17T12:26:08.539Z,92.71
2018-02-17T12:27:08.407Z,92.51
2018-02-17T12:28:08.282Z,93.65
2018-02-17T12:29:08.158Z,91.85
2018-02-17T12:30:08.032Z,90.71
2018-02-17T12:31:07.911Z,89.57
2018-02-17T12:32:07.788Z,89.43
2018-02-17T12:33:07.661Z,89.53
2018-02-17T12:34:07.534Z,88.10
2018-02-17T12:35:07.410Z,88.29
2018-02-17T12:36:07.283Z,88.95
2018-02-17T12:37:07.159Z,88.67
2018-02-17T12:38:07.037Z,89.62
2018-02-17T12:39:06.913Z,89.90
2018-02-17T12:40:06.786Z,88.95
2018-02-17T12:41:06.662Z,88.01
2018-02-17T12:42:06.535Z,87.43
2018-02-17T12:43:06.410Z,88.05
2018-02-17T12:44:06.296Z,88.34
2018-02-17T12:45:06.193Z,88.15
2018-02-17T12:46:06.037Z,88.43
2018-02-17T12:47:05.912Z,90.14
2018-02-17T12:48:05.785Z,90.90
2018-02-17T12:49:05.658Z,90.23
2018-02-17T12:50:05.536Z,90.23
2018-02-17T12:51:05.412Z,90.61